Corumbiara, Brazil
Current Conditions -  °F | °C
As of 10:00 PM on Monday 24 Nov 2014 (Local Time) from SBVH Reporting Station
Thunderstorm Thunderstorm  
Wind Chill: 73°   Ceiling: Unl
Heat Index: 73°   Visibility: 5mi
Dew Point: 73°   Wind: 3mph
Humidity: 100%   Direction: 260°W
Pressure: 29.94"   Gusts: NA
Location:  12.96°S, 60.89°W
Report Text: SBVH 250200Z 26003KT 8000 TS SCT010 FEW018CB SCT090 23/23 Q1014
Loading
Personal Weather Stations






























Interactive Weather Map New forecast layout! Learn more

10-Day Weather Forecast

Advertisements
Track Severe Weather on mobile